Time;durP1;ratioP1;P1;durP2;ratioP2;P2;SDS_P1;SDS_P2;PMS_P1;PMS_P2;Temp;Humidity;BMP_temperature;BMP_pressure;BME280_temperature;BME280_humidity;BME280_pressure;Samples;Min_cycle;Max_cycle;Signal;HPM_P1;HPM_P2
2021/06/20 05:04:06;;;;;;;5.70;2.83;;;;;;;19.74;81.70;100225.20;125181;1102;104134;-78
2021/06/20 05:06:40;;;;;;;4.87;3.03;;;;;;;19.78;81.51;100220.77;125091;1102;104172;-78
2021/06/20 05:09:07;;;;;;;5.17;3.10;;;;;;;19.83;81.97;100226.06;125206;1102;104195;-77
2021/06/20 05:11:35;;;;;;;6.37;3.67;;;;;;;19.79;81.42;100209.23;125179;1102;104150;-78
2021/06/20 05:14:03;;;;;;;8.70;3.30;;;;;;;19.80;81.57;100212.77;125120;1102;104153;-77
2021/06/20 05:16:34;;;;;;;4.37;3.20;;;;;;;19.84;82.08;100211.88;125238;1102;104262;-79
2021/06/20 05:19:02;;;;;;;4.30;2.70;;;;;;;19.85;81.74;100205.63;125042;1102;104193;-79
2021/06/20 05:21:33;;;;;;;4.70;3.07;;;;;;;19.83;81.51;100204.77;125010;1102;104252;-78
2021/06/20 05:24:05;;;;;;;3.63;2.70;;;;;;;19.83;80.94;100194.98;125231;1102;104358;-78
2021/06/20 05:26:33;;;;;;;6.17;3.07;;;;;;;19.82;80.97;100177.27;125057;1102;104172;-77
2021/06/20 05:29:04;;;;;;;6.73;3.40;;;;;;;19.85;82.11;100163.03;125264;1102;104268;-78
2021/06/20 05:31:32;;;;;;;5.23;3.07;;;;;;;19.87;81.83;100147.95;125149;1102;104165;-78
2021/06/20 05:34:00;;;;;;;9.47;2.90;;;;;;;19.89;81.33;100139.03;125028;1102;104344;-78
2021/06/20 05:36:28;;;;;;;7.83;3.47;;;;;;;19.91;81.83;100131.03;125268;1102;104248;-79
2021/06/20 05:38:56;;;;;;;6.00;3.47;;;;;;;19.94;80.93;100123.02;125236;1102;104271;-78
2021/06/20 05:41:24;;;;;;;8.17;3.73;;;;;;;19.96;81.43;100121.25;125004;1102;104331;-78
2021/06/20 05:43:53;;;;;;;6.10;3.67;;;;;;;19.97;80.98;100109.67;124974;1102;104149;-78
2021/06/20 05:46:23;;;;;;;7.13;3.13;;;;;;;19.98;80.80;100116.78;125061;1102;104303;-79
2021/06/20 05:48:51;;;;;;;5.93;3.50;;;;;;;19.96;81.37;100115.92;125092;1102;104190;-77
2021/06/20 05:51:19;;;;;;;5.93;3.17;;;;;;;19.97;80.89;100112.34;124990;1102;104158;-77
2021/06/20 05:53:47;;;;;;;6.30;3.17;;;;;;;19.99;81.85;100113.23;124979;1103;104316;-79
2021/06/20 05:56:15;;;;;;;5.23;3.20;;;;;;;20.01;81.00;100110.55;125013;1102;104165;-78
2021/06/20 05:58:43;;;;;;;6.57;3.17;;;;;;;20.03;81.36;100109.62;125253;1102;104143;-78
2021/06/20 06:01:11;;;;;;;9.93;3.40;;;;;;;20.04;81.40;100111.40;125019;1102;104281;-78
2021/06/20 06:03:39;;;;;;;10.23;3.37;;;;;;;20.05;81.53;100097.16;125168;1102;104319;-78
2021/06/20 06:06:10;;;;;;;7.23;3.60;;;;;;;20.05;81.13;100094.50;125251;1101;104168;-79
2021/06/20 06:08:44;;;;;;;7.23;3.30;;;;;;;20.07;80.68;100098.05;125080;1102;104206;-78
2021/06/20 06:11:13;;;;;;;4.40;3.30;;;;;;;20.10;81.27;100106.02;125173;1102;104159;-78
2021/06/20 06:13:41;;;;;;;6.07;3.37;;;;;;;20.14;80.83;100097.99;125113;1102;104474;-77
2021/06/20 06:16:12;;;;;;;10.00;3.70;;;;;;;20.16;80.69;100091.73;125156;1102;104409;-79
2021/06/20 06:18:40;;;;;;;8.17;3.47;;;;;;;20.21;80.26;100097.02;125002;1103;104310;-78
2021/06/20 06:21:08;;;;;;;9.63;3.87;;;;;;;20.27;81.49;100105.84;124980;1105;104409;-78
2021/06/20 06:23:36;;;;;;;8.53;3.60;;;;;;;20.36;80.36;100107.52;124982;1102;104175;-78
2021/06/20 06:26:04;;;;;;;5.87;3.47;;;;;;;20.42;80.42;100102.12;125002;1105;104306;-78
2021/06/20 06:28:32;;;;;;;4.87;3.13;;;;;;;20.48;80.79;100119.83;124990;1105;104688;-78
2021/06/20 06:31:00;;;;;;;12.73;3.80;;;;;;;20.52;79.94;100121.58;125018;1102;104182;-77
2021/06/20 06:33:28;;;;;;;7.97;3.83;;;;;;;20.54;80.40;100122.43;124992;1103;104446;-77
2021/06/20 06:35:56;;;;;;;7.50;3.30;;;;;;;20.55;80.34;100125.97;125043;1103;104379;-78
2021/06/20 06:38:24;;;;;;;7.77;3.67;;;;;;;20.52;80.22;100105.59;125046;1102;104274;-77
2021/06/20 06:40:52;;;;;;;6.33;3.60;;;;;;;20.51;80.35;100098.48;125001;1102;104364;-78
2021/06/20 06:43:20;;;;;;;6.30;3.50;;;;;;;20.52;80.45;100112.67;125012;1102;104370;-78
2021/06/20 06:45:47;;;;;;;5.17;3.23;;;;;;;20.56;80.00;100122.41;124954;1100;104640;-78
2021/06/20 06:48:15;;;;;;;10.33;3.30;;;;;;;20.60;79.90;100116.13;125015;1105;104265;-78
2021/06/20 06:50:44;;;;;;;6.33;3.10;;;;;;;20.63;80.22;100119.66;125002;1105;104339;-77
2021/06/20 06:53:12;;;;;;;7.20;3.13;;;;;;;20.69;80.59;100133.84;125048;1102;104133;-78
2021/06/20 06:55:40;;;;;;;5.93;3.10;;;;;;;20.71;80.27;100143.59;125195;1102;104153;-78
2021/06/20 06:58:08;;;;;;;3.30;2.70;;;;;;;20.79;80.76;100152.37;125031;1102;104425;-77
2021/06/20 07:00:36;;;;;;;3.80;2.80;;;;;;;20.85;80.75;100153.20;125220;1102;104162;-78
2021/06/20 07:03:04;;;;;;;3.53;2.60;;;;;;;20.89;80.42;100154.94;125204;1102;104159;-79
2021/06/20 07:05:32;;;;;;;5.03;2.50;;;;;;;20.93;80.57;100156.67;125112;1102;104286;-77
2021/06/20 07:08:02;;;;;;;7.07;3.00;;;;;;;21.00;79.83;100145.02;125031;1103;104290;-77
2021/06/20 07:10:37;;;;;;;6.53;3.27;;;;;;;21.08;79.97;100143.11;125152;1102;104168;-78
2021/06/20 07:13:05;;;;;;;6.37;2.80;;;;;;;21.18;80.11;100143.91;125050;1102;104172;-77
2021/06/20 07:15:33;;;;;;;10.13;2.97;;;;;;;21.33;80.27;100140.12;125144;1102;104243;-79
2021/06/20 07:18:01;;;;;;;6.97;2.87;;;;;;;21.49;79.40;100147.05;125177;1102;104309;-77
2021/06/20 07:20:29;;;;;;;5.37;2.87;;;;;;;21.77;79.84;100143.95;125193;1102;104353;-78
2021/06/20 07:22:57;;;;;;;3.23;2.20;;;;;;;22.05;79.84;100149.71;125164;1102;104156;-78
2021/06/20 07:25:25;;;;;;;3.40;2.63;;;;;;;22.29;79.55;100154.66;125162;1102;105322;-77
2021/06/20 07:27:53;;;;;;;4.87;2.90;;;;;;;22.40;79.40;100145.55;125195;1102;104605;-78
2021/06/20 07:30:27;;;;;;;6.30;2.70;;;;;;;22.51;79.02;100152.49;125003;1102;104332;-78
2021/06/20 07:32:56;;;;;;;4.60;2.50;;;;;;;22.54;78.69;100144.42;125023;1102;104336;-78
2021/06/20 07:35:24;;;;;;;3.97;2.20;;;;;;;22.55;78.71;100149.73;124994;1102;104147;-77
2021/06/20 07:37:53;;;;;;;2.57;2.30;;;;;;;22.62;78.92;100145.14;125207;1102;104146;-78
2021/06/20 07:40:21;;;;;;;4.27;2.60;;;;;;;22.68;77.91;100138.80;125168;1102;104366;-78
2021/06/20 07:42:49;;;;;;;5.17;2.73;;;;;;;22.75;78.53;100119.02;125102;1101;104331;-78
2021/06/20 07:45:17;;;;;;;6.17;2.53;;;;;;;22.79;78.30;100110.03;125256;1102;104152;-79
2021/06/20 07:47:48;;;;;;;3.83;2.43;;;;;;;22.82;78.25;100115.32;125021;1102;104325;-78
2021/06/20 07:50:28;;;;;;;8.80;2.37;;;;;;;22.94;78.32;100116.88;126309;1099;104213;-78
2021/06/20 07:52:56;;;;;;;6.77;2.70;;;;;;;23.02;78.14;100106.88;126309;1099;104233;-78
2021/06/20 07:55:23;;;;;;;6.93;2.40;;;;;;;23.14;77.70;100114.66;126245;1099;104165;-78
2021/06/20 07:57:52;;;;;;;5.77;2.60;;;;;;;23.30;77.73;100120.55;126333;1099;104322;-78
2021/06/20 08:00:21;;;;;;;5.40;2.70;;;;;;;23.51;77.62;100118.28;126303;1099;104143;-78
2021/06/20 08:02:49;;;;;;;5.53;2.30;;;;;;;23.73;77.71;100118.63;126350;1099;104197;-78
2021/06/20 08:05:17;;;;;;;4.97;2.20;;;;;;;23.91;76.86;100116.47;126255;1099;104210;-78
2021/06/20 08:07:45;;;;;;;4.07;2.30;;;;;;;23.98;76.64;100116.27;125296;1099;104307;-78
2021/06/20 08:10:24;;;;;;;3.03;2.27;;;;;;;24.09;76.77;100116.00;126325;1098;104146;-79
2021/06/20 08:12:54;;;;;;;2.55;2.15;;;;;;;24.17;76.60;100126.52;126350;1099;104140;-78
2021/06/20 08:15:22;;;;;;;3.90;2.03;;;;;;;24.24;76.10;100128.09;126299;1099;104210;-78
2021/06/20 08:17:50;;;;;;;7.00;2.40;;;;;;;24.25;75.74;100123.60;126296;1099;118995;-77
2021/06/20 08:20:18;;;;;;;7.73;2.17;;;;;;;24.23;75.53;100135.27;126341;1099;104165;-78
2021/06/20 08:22:46;;;;;;;6.63;2.13;;;;;;;24.20;75.20;100134.48;126361;1099;104213;-79
2021/06/20 08:25:14;;;;;;;5.73;2.13;;;;;;;24.24;75.44;100136.14;126099;1099;104213;-78
2021/06/20 08:27:43;;;;;;;4.93;2.40;;;;;;;24.29;75.07;100144.92;126289;1099;104143;-79
2021/06/20 08:30:13;;;;;;;6.63;2.20;;;;;;;24.28;74.35;100143.19;126358;1098;104226;-78
2021/06/20 08:32:44;;;;;;;5.27;1.97;;;;;;;24.33;75.04;100143.94;125256;1099;104283;-77
2021/06/20 08:35:21;;;;;;;7.47;2.33;;;;;;;24.47;74.31;100135.52;125269;1099;104162;-76
2021/06/20 08:37:50;;;;;;;6.67;2.10;;;;;;;24.72;74.31;100135.73;125283;1102;104303;-78
2021/06/20 08:40:36;;;;;;;6.90;2.63;;;;;;;24.91;73.12;100141.45;125377;1099;104337;-78
2021/06/20 08:43:12;;;;;;;4.77;2.07;;;;;;;25.15;74.18;100138.08;125327;1102;104256;-78
2021/06/20 08:45:43;;;;;;;4.03;2.30;;;;;;;25.25;73.24;100134.20;125288;1102;104140;-78
2021/06/20 08:48:13;;;;;;;4.13;2.60;;;;;;;25.25;73.29;100145.81;125247;1101;104265;-77
2021/06/20 08:50:41;;;;;;;4.20;2.30;;;;;;;25.29;72.88;100152.89;125321;1100;104175;-79
2021/06/20 08:53:14;;;;;;;7.27;1.90;;;;;;;25.45;72.96;100158.66;125293;1102;104361;-78
2021/06/20 08:55:43;;;;;;;6.78;2.62;;;;;;;25.62;72.10;100162.63;125268;1102;104146;-78
2021/06/20 08:58:20;;;;;;;6.60;2.40;;;;;;;25.69;71.81;100160.62;125273;1102;104300;-78
2021/06/20 09:00:50;;;;;;;7.90;2.50;;;;;;;25.86;72.12;100154.70;125345;1102;104149;-78
2021/06/20 09:03:18;;;;;;;5.43;2.50;;;;;;;25.93;71.83;100148.16;125294;1102;104198;-78
2021/06/20 09:06:00;;;;;;;6.60;2.60;;;;;;;25.98;71.24;100148.95;125299;1099;104412;-79
2021/06/20 09:08:32;;;;;;;5.90;2.50;;;;;;;26.07;71.19;100153.11;125268;1099;104443;-79
2021/06/20 09:11:08;;;;;;;5.37;2.60;;;;;;;26.16;71.26;100155.48;125286;1102;104779;-79
2021/06/20 09:13:41;;;;;;;6.07;2.53;;;;;;;26.25;71.10;100160.55;125409;1099;104274;-78
2021/06/20 09:16:09;;;;;;;10.57;3.10;;;;;;;26.30;71.35;100168.45;126322;1099;104343;-79
2021/06/20 09:18:37;;;;;;;9.83;3.00;;;;;;;26.26;70.68;100173.08;126289;1099;104200;-77
2021/06/20 09:21:10;;;;;;;5.63;2.73;;;;;;;26.25;69.56;100181.20;126304;1099;104143;-78
2021/06/20 09:23:39;;;;;;;;;;;;;;;26.21;69.44;100184.91;126320;1098;104689;-78
2021/06/20 09:26:08;;;;;;;7.80;2.83;;;;;;;26.23;70.22;100183.06;126353;1099;104393;-80
2021/06/20 09:28:38;;;;;;;7.43;2.60;;;;;;;26.39;69.85;100186.97;126287;1098;104137;-79
2021/06/20 09:31:08;;;;;;;7.10;2.93;;;;;;;26.53;69.84;100187.35;126248;1099;104137;-78
2021/06/20 09:33:37;;;;;;;7.63;2.70;;;;;;;26.70;69.98;100189.48;126264;1099;104223;-78
2021/06/20 09:36:06;;;;;;;6.10;2.60;;;;;;;26.98;69.48;100187.60;126256;1099;104303;-80
2021/06/20 09:38:35;;;;;;;10.10;2.60;;;;;;;27.17;68.65;100194.03;126303;1099;105482;-78
2021/06/20 09:41:05;;;;;;;4.70;2.40;;;;;;;27.30;68.78;100186.39;126275;1099;104134;-78
2021/06/20 09:43:35;;;;;;;7.87;2.83;;;;;;;27.43;68.47;100186.81;126280;1099;104373;-79
2021/06/20 09:46:03;;;;;;;8.40;2.67;;;;;;;27.55;68.02;100174.65;126262;1099;104259;-77
2021/06/20 09:48:33;;;;;;;9.90;2.80;;;;;;;27.68;67.32;100183.14;126277;1099;104169;-78
2021/06/20 09:51:12;;;;;;;7.70;2.70;;;;;;;27.62;66.36;100184.26;126287;1099;104939;-78
2021/06/20 09:53:43;;;;;;;4.50;2.53;;;;;;;27.36;67.64;100171.81;126271;1099;104209;-79
2021/06/20 09:56:14;;;;;;;9.77;3.00;;;;;;;27.13;66.33;100176.26;126364;1099;104277;-78
2021/06/20 09:58:45;;;;;;;6.47;2.83;;;;;;;26.97;66.67;100183.14;126244;1099;104142;-78
2021/06/20 10:01:15;;;;;;;4.13;2.70;;;;;;;26.84;66.97;100170.14;126277;1099;104299;-78
2021/06/20 10:03:45;;;;;;;5.37;2.80;;;;;;;26.79;66.22;100169.44;126338;1099;104608;-80
2021/06/20 10:06:14;;;;;;;7.60;3.10;;;;;;;26.68;66.54;100160.89;126332;1099;104149;-78
2021/06/20 10:08:43;;;;;;;5.57;2.70;;;;;;;26.58;66.12;100165.67;126200;1099;104171;-78
2021/06/20 10:11:12;;;;;;;8.37;3.23;;;;;;;26.45;66.47;100156.30;126349;1099;104188;-78
2021/06/20 10:13:41;;;;;;;12.50;4.20;;;;;;;26.42;66.24;100153.72;126320;1099;104795;-78
2021/06/20 10:16:17;;;;;;;6.00;2.80;;;;;;;26.46;66.15;100158.03;126322;1098;104142;-79
2021/06/20 10:18:50;;;;;;;8.73;2.90;;;;;;;26.49;66.25;100148.06;126285;1099;104281;-78
2021/06/20 10:21:35;;;;;;;7.40;2.98;;;;;;;26.56;66.04;100154.09;126349;1099;104144;-78
2021/06/20 10:24:07;;;;;;;7.90;2.97;;;;;;;26.55;66.01;100146.94;126300;1099;104229;-79
2021/06/20 10:26:35;;;;;;;5.27;2.90;;;;;;;26.48;66.15;100154.37;126320;1099;104274;-79
2021/06/20 10:29:16;;;;;;;6.27;2.57;;;;;;;26.34;66.22;100152.16;126302;1099;104161;-78
2021/06/20 10:31:44;;;;;;;5.13;2.70;;;;;;;26.03;64.87;100149.66;126357;1099;104147;-78
2021/06/20 10:34:24;;;;;;;7.23;2.90;;;;;;;25.82;65.46;100143.14;126364;1099;104206;-79
2021/06/20 10:36:55;;;;;;;11.60;3.20;;;;;;;25.65;65.89;100154.47;126328;1099;104130;-79
2021/06/20 10:39:24;;;;;;;9.55;3.05;;;;;;;25.40;65.22;100148.97;126245;1099;104354;-78
2021/06/20 10:42:05;;;;;;;7.80;3.13;;;;;;;25.15;65.32;100156.88;126371;1098;104142;-78
2021/06/20 10:44:42;;;;;;;10.50;3.10;;;;;;;24.93;65.81;100155.72;126328;1098;104149;-78
2021/06/20 10:47:10;;;;;;;10.67;3.00;;;;;;;24.72;65.40;100157.20;126329;1099;104220;-77
2021/06/20 10:49:39;;;;;;;7.45;3.20;;;;;;;24.61;65.29;100163.81;126300;1099;104159;-77
2021/06/20 10:52:17;;;;;;;5.40;3.17;;;;;;;24.49;65.43;100156.93;126242;1099;104213;-79
2021/06/20 10:54:52;;;;;;;6.83;3.30;;;;;;;24.40;65.65;100166.09;126295;1099;104197;-79
2021/06/20 10:57:27;;;;;;;8.40;3.33;;;;;;;24.28;65.73;100156.59;126321;1099;104281;-77
2021/06/20 10:59:57;;;;;;;12.87;3.57;;;;;;;24.29;65.66;100162.83;126237;1098;104146;-78
2021/06/20 11:02:32;;;;;;;9.60;3.80;;;;;;;24.29;65.30;100154.78;126233;1099;104271;-78
2021/06/20 11:05:03;;;;;;;10.30;3.93;;;;;;;24.30;65.55;100157.42;126316;1099;104142;-78
2021/06/20 11:07:33;;;;;;;12.10;3.50;;;;;;;24.27;65.69;100162.87;126358;1099;104141;-78
2021/06/20 11:10:01;;;;;;;7.53;3.53;;;;;;;24.27;65.52;100157.50;126276;1099;104214;-78
2021/06/20 11:12:29;;;;;;;10.17;3.77;;;;;;;24.30;65.85;100151.19;126285;1098;104192;-78
2021/06/20 11:14:57;;;;;;;12.40;3.80;;;;;;;24.38;65.92;100159.91;126357;1099;104169;-78
2021/06/20 11:17:35;;;;;;;15.47;3.97;;;;;;;24.48;65.73;100155.16;126281;1099;104213;-78
2021/06/20 11:20:14;;;;;;;14.73;4.27;;;;;;;24.62;65.30;100153.03;126315;1099;104142;-79
2021/06/20 11:22:42;;;;;;;11.00;3.90;;;;;;;24.85;65.20;100155.04;126339;1099;104217;-78
2021/06/20 11:25:11;;;;;;;11.33;4.40;;;;;;;25.03;65.39;100153.64;126364;1099;104191;-78
2021/06/20 11:27:39;;;;;;;9.67;4.27;;;;;;;25.17;65.18;100153.23;126354;1099;104394;-79
2021/06/20 11:30:16;;;;;;;13.67;4.93;;;;;;;25.31;64.92;100144.79;126215;1099;104303;-78
2021/06/20 11:32:44;;;;;;;11.80;4.10;;;;;;;25.43;64.83;100149.78;126353;1099;104127;-78
2021/06/20 11:35:15;;;;;;;11.63;4.30;;;;;;;25.52;63.86;100147.72;126340;1098;104181;-78
2021/06/20 11:37:48;;;;;;;11.90;4.40;;;;;;;25.58;64.12;100143.02;126346;1099;104136;-77
2021/06/20 11:40:19;;;;;;;11.17;4.67;;;;;;;25.65;64.01;100141.04;126249;1099;104156;-78
2021/06/20 11:42:49;;;;;;;11.17;4.90;;;;;;;25.67;64.12;100139.17;126265;1099;104242;-77
2021/06/20 11:45:19;;;;;;;13.40;4.70;;;;;;;25.78;63.91;100128.94;126347;1099;104181;-79
2021/06/20 11:47:50;;;;;;;15.10;4.90;;;;;;;26.00;63.93;100136.32;126325;1099;104184;-78
2021/06/20 11:50:23;;;;;;;11.93;5.30;;;;;;;26.18;63.54;100126.76;126200;1099;104268;-78
2021/06/20 11:52:57;;;;;;;14.90;4.97;;;;;;;26.30;63.89;100129.02;126294;1099;104144;-78
2021/06/20 11:55:27;;;;;;;10.23;3.90;;;;;;;26.42;61.63;100133.06;126287;1099;104310;-80
2021/06/20 11:58:00;;;;;;;10.57;3.77;;;;;;;26.40;61.58;100136.73;126290;1099;104252;-79
2021/06/20 12:00:28;;;;;;;15.15;4.58;;;;;;;26.45;62.74;100132.09;126241;1097;104156;-78
2021/06/20 12:03:02;;;;;;;16.67;4.63;;;;;;;26.58;62.77;100130.69;125316;1102;104300;-77
2021/06/20 12:05:30;;;;;;;;;;;;;;;26.71;60.19;100132.04;125289;1102;104603;-78
2021/06/20 12:08:00;;;;;;;22.97;4.47;;;;;;;26.75;61.26;100127.41;125214;1102;104325;-78
2021/06/20 12:10:31;;;;;;;10.87;3.87;;;;;;;26.67;61.87;100121.45;125283;1102;104274;-78
2021/06/20 12:13:01;;;;;;;10.03;4.13;;;;;;;26.73;61.15;100134.67;125253;1102;105011;-77
2021/06/20 12:15:30;;;;;;;8.77;4.20;;;;;;;26.72;61.26;100127.52;125341;1102;104297;-77
2021/06/20 12:18:02;;;;;;;13.15;4.20;;;;;;;26.76;61.24;100126.48;125274;1102;104346;-78
2021/06/20 12:20:31;;;;;;;13.47;4.03;;;;;;;26.93;61.71;100125.86;125228;1102;104143;-78
2021/06/20 12:22:59;;;;;;;15.10;4.40;;;;;;;27.01;60.84;100114.80;125290;1099;104278;-80
2021/06/20 12:25:27;;;;;;;14.57;4.73;;;;;;;27.01;60.37;100136.34;125276;1099;104136;-78
2021/06/20 12:27:55;;;;;;;17.80;4.93;;;;;;;26.85;60.66;100122.59;125292;1102;104185;-79
2021/06/20 12:30:25;;;;;;;11.77;3.83;;;;;;;26.75;60.21;100127.41;125281;1099;104401;-76
2021/06/20 12:32:53;;;;;;;14.30;4.97;;;;;;;26.55;60.71;100131.70;125178;1099;107814;-77
2021/06/20 12:35:24;;;;;;;16.03;4.50;;;;;;;26.51;60.93;100126.48;126198;1099;104201;-77
2021/06/20 12:37:54;;;;;;;14.97;4.13;;;;;;;26.51;60.51;100127.35;126309;1099;104236;-79
2021/06/20 12:40:25;;;;;;;9.30;4.10;;;;;;;26.49;60.16;100139.09;126307;1099;104242;-78
2021/06/20 12:42:56;;;;;;;14.13;4.50;;;;;;;26.48;60.74;100127.47;126266;1099;104157;-79
2021/06/20 12:45:27;;;;;;;15.40;5.10;;;;;;;26.39;60.34;100133.17;126315;1098;104297;-78
2021/06/20 12:47:57;;;;;;;14.47;4.43;;;;;;;26.41;60.94;100141.19;126307;1099;104149;-78
2021/06/20 12:50:27;;;;;;;15.57;4.40;;;;;;;26.38;61.00;100150.23;126330;1099;104149;-79
2021/06/20 12:52:55;;;;;;;11.63;4.73;;;;;;;26.35;60.69;100145.86;126326;1099;104130;-78
2021/06/20 12:55:26;;;;;;;12.43;4.67;;;;;;;26.29;60.12;100150.59;126312;1099;104189;-79
2021/06/20 12:57:57;;;;;;;14.90;5.00;;;;;;;26.17;60.70;100151.88;126325;1099;104267;-78
2021/06/20 13:00:30;;;;;;;14.20;4.53;;;;;;;26.05;61.00;100147.79;126337;1099;104261;-78
2021/06/20 13:03:02;;;;;;;14.07;4.55;;;;;;;25.94;61.02;100144.56;126244;1099;104140;-77
2021/06/20 13:05:35;;;;;;;13.23;4.70;;;;;;;25.83;60.67;100152.98;126271;1099;104153;-78
2021/06/20 13:08:04;;;;;;;10.30;4.90;;;;;;;25.69;60.52;100153.42;126318;1099;104187;-78
2021/06/20 13:10:33;;;;;;;10.43;4.47;;;;;;;25.54;60.32;100146.75;126318;1098;104331;-77
2021/06/20 13:13:01;;;;;;;15.27;4.97;;;;;;;25.44;60.73;100146.14;126151;1099;104166;-77
2021/06/20 13:15:33;;;;;;;15.33;4.50;;;;;;;25.34;61.19;100144.69;126312;1099;104264;-78
2021/06/20 13:18:05;;;;;;;13.50;4.87;;;;;;;25.36;61.51;100137.45;126356;1099;104150;-78
2021/06/20 13:20:34;;;;;;;15.93;4.90;;;;;;;25.44;61.08;100135.40;126354;1099;104143;-79
2021/06/20 13:23:05;;;;;;;16.03;4.90;;;;;;;25.51;60.81;100135.20;126274;1099;104303;-77
2021/06/20 13:25:33;;;;;;;20.27;4.77;;;;;;;25.55;61.09;100137.75;126298;1099;104156;-78
2021/06/20 13:28:01;;;;;;;18.30;5.00;;;;;;;25.62;60.86;100139.31;126277;1099;104144;-78
2021/06/20 13:30:30;;;;;;;18.80;5.17;;;;;;;25.73;60.77;100130.05;126322;1099;104275;-77
2021/06/20 13:32:58;;;;;;;14.90;4.90;;;;;;;25.86;60.81;100130.51;126256;1099;104136;-79
2021/06/20 13:35:27;;;;;;;18.33;5.17;;;;;;;25.89;60.94;100127.72;126291;1099;104159;-78
2021/06/20 13:37:55;;;;;;;17.47;5.57;;;;;;;25.89;60.67;100128.59;126320;1099;104191;-78
2021/06/20 13:40:24;;;;;;;22.93;5.07;;;;;;;25.92;60.70;100109.66;126323;1099;104146;-78
2021/06/20 13:42:55;;;;;;;21.53;5.63;;;;;;;25.97;60.58;100117.58;126211;1099;104628;-78
2021/06/20 13:45:25;;;;;;;18.53;5.23;;;;;;;26.01;60.41;100114.77;126377;1099;104137;-79
2021/06/20 13:47:54;;;;;;;18.10;5.27;;;;;;;25.97;60.19;100107.72;126296;1099;104344;-78
2021/06/20 13:50:22;;;;;;;15.97;5.07;;;;;;;25.91;60.33;100113.27;126266;1099;104185;-78
2021/06/20 13:52:50;;;;;;;19.37;5.07;;;;;;;25.89;60.30;100112.46;126299;1098;104608;-79
2021/06/20 13:55:19;;;;;;;16.77;4.53;;;;;;;25.83;60.23;100107.29;126344;1099;104162;-78
2021/06/20 13:57:47;;;;;;;19.10;5.27;;;;;;;25.76;60.41;100100.38;126340;1099;104312;-78
2021/06/20 14:00:18;;;;;;;19.23;4.80;;;;;;;25.71;60.58;100103.22;126248;1099;104208;-79
2021/06/20 14:02:47;;;;;;;22.53;5.13;;;;;;;25.69;60.65;100102.38;126306;1099;104134;-78
2021/06/20 14:05:15;;;;;;;17.33;5.17;;;;;;;25.62;60.29;100101.70;126344;1099;104198;-79
2021/06/20 14:07:44;;;;;;;21.50;5.23;;;;;;;25.65;60.92;100098.05;126319;1099;104140;-78
2021/06/20 14:10:13;;;;;;;18.80;4.93;;;;;;;25.71;60.93;100105.91;125293;1099;104622;-78
2021/06/20 14:12:42;;;;;;;20.53;5.30;;;;;;;25.79;60.74;100100.28;125227;1099;104284;-79
2021/06/20 14:15:11;;;;;;;17.30;5.20;;;;;;;25.84;60.84;100101.86;126220;1099;104243;-78
2021/06/20 14:17:39;;;;;;;19.23;4.70;;;;;;;25.88;60.76;100102.63;126259;1099;104322;-79
2021/06/20 14:20:09;;;;;;;19.97;5.30;;;;;;;25.83;60.02;100100.09;126257;1099;104181;-79
2021/06/20 14:22:37;;;;;;;25.07;4.87;;;;;;;25.79;59.98;100093.09;126240;1099;104158;-78
2021/06/20 14:25:07;;;;;;;19.63;4.97;;;;;;;25.84;60.86;100091.11;125259;1099;104152;-79
2021/06/20 14:27:36;;;;;;;19.37;4.60;;;;;;;25.87;60.20;100086.55;125375;1099;104137;-78
2021/06/20 14:30:07;;;;;;;25.93;5.57;;;;;;;25.81;60.58;100084.98;125284;1099;104182;-79
2021/06/20 14:32:35;;;;;;;23.93;5.43;;;;;;;25.82;60.75;100087.61;125289;1099;104262;-79
2021/06/20 14:35:05;;;;;;;20.43;5.30;;;;;;;25.79;60.31;100087.72;125527;1099;104647;-79
2021/06/20 14:37:36;;;;;;;28.90;5.40;;;;;;;25.73;60.10;100089.73;126182;1099;104302;-79
2021/06/20 14:40:06;;;;;;;25.73;5.53;;;;;;;25.66;60.10;100089.04;126275;1099;104287;-77
2021/06/20 14:42:35;;;;;;;20.63;4.83;;;;;;;25.66;60.44;100089.04;126320;1099;104171;-78
2021/06/20 14:45:03;;;;;;;23.97;5.10;;;;;;;25.64;60.51;100083.72;126321;1098;104209;-80
2021/06/20 14:47:31;;;;;;;22.43;5.20;;;;;;;25.71;60.30;100084.41;126337;1099;104298;-79
2021/06/20 14:50:00;;;;;;;22.57;5.33;;;;;;;25.79;60.98;100081.47;126235;1099;104181;-80
2021/06/20 14:52:28;;;;;;;19.00;4.73;;;;;;;25.89;61.03;100088.27;126299;1099;104159;-78
2021/06/20 14:54:56;;;;;;;25.80;5.20;;;;;;;25.87;60.16;100087.45;126304;1099;104146;-78
2021/06/20 14:57:24;;;;;;;26.53;5.20;;;;;;;25.86;60.62;100088.37;126324;1098;104159;-79
2021/06/20 14:59:52;;;;;;;22.10;5.37;;;;;;;25.80;60.43;100088.58;126347;1099;104127;-79
2021/06/20 15:02:21;;;;;;;27.67;5.43;;;;;;;25.74;60.27;100078.94;126299;1099;104309;-79
2021/06/20 15:04:49;;;;;;;28.97;5.37;;;;;;;25.69;60.51;100078.19;126272;1099;104197;-78
2021/06/20 15:07:17;;;;;;;31.67;6.13;;;;;;;25.60;60.19;100081.19;126338;1099;104207;-78
2021/06/20 15:09:44;;;;;;;22.67;5.40;;;;;;;25.51;60.68;100079.70;126361;1099;104174;-78
2021/06/20 15:12:13;;;;;;;28.47;5.60;;;;;;;25.40;60.22;100085.42;126300;1099;104159;-78
2021/06/20 15:14:41;;;;;;;26.43;5.80;;;;;;;25.30;60.98;100086.62;126271;1099;104434;-77
2021/06/20 15:17:09;;;;;;;28.77;5.93;;;;;;;25.18;60.75;100089.66;126328;1099;104204;-78
2021/06/20 15:19:37;;;;;;;34.20;6.37;;;;;;;25.05;60.77;100090.04;126366;1099;104147;-78
2021/06/20 15:22:05;;;;;;;25.70;5.70;;;;;;;24.95;60.65;100099.31;126330;1099;104147;-78
2021/06/20 15:24:33;;;;;;;27.87;5.13;;;;;;;24.89;60.97;100102.19;126238;1099;104302;-78
2021/06/20 15:27:02;;;;;;;24.27;5.13;;;;;;;24.79;60.87;100106.92;126304;1099;104205;-78
2021/06/20 15:29:30;;;;;;;22.63;5.40;;;;;;;24.69;60.72;100098.27;126321;1099;104152;-79
2021/06/20 15:32:15;;;;;;;27.73;5.43;;;;;;;24.60;60.78;100108.39;126292;1099;104153;-77
2021/06/20 15:34:43;;;;;;;25.50;5.00;;;;;;;24.51;60.90;100106.80;126237;1099;104221;-78
2021/06/20 15:37:12;;;;;;;23.63;5.10;;;;;;;24.47;61.34;100102.47;126328;1099;104146;-78
2021/06/20 15:39:40;;;;;;;25.07;4.57;;;;;;;24.39;61.19;100116.09;126282;1098;104309;-78
2021/06/20 15:42:08;;;;;;;20.10;4.67;;;;;;;24.31;61.12;100121.66;126325;1099;104560;-79
2021/06/20 15:44:36;;;;;;;24.37;6.03;;;;;;;24.20;61.36;100126.44;126265;1099;104402;-78
2021/06/20 15:47:05;;;;;;;22.67;4.90;;;;;;;24.13;61.70;100130.19;126277;1099;104153;-80
2021/06/20 15:49:35;;;;;;;30.13;5.30;;;;;;;24.06;61.24;100124.12;126315;1099;104174;-78
2021/06/20 15:52:03;;;;;;;30.33;5.50;;;;;;;24.02;61.63;100120.61;126256;1099;104197;-78
2021/06/20 15:54:31;;;;;;;22.67;4.70;;;;;;;24.00;61.85;100124.27;126273;1099;104256;-78
2021/06/20 15:56:59;;;;;;;20.83;5.17;;;;;;;23.95;61.92;100119.03;126289;1099;104268;-79
2021/06/20 15:59:27;;;;;;;25.17;5.37;;;;;;;23.92;61.72;100118.20;126330;1099;104143;-79
2021/06/20 16:01:55;;;;;;;17.47;4.17;;;;;;;23.86;61.87;100121.94;126281;1099;104239;-78
2021/06/20 16:04:23;;;;;;;19.83;4.80;;;;;;;23.81;62.28;100124.70;126318;1099;104753;-79
2021/06/20 16:06:50;;;;;;;25.33;4.73;;;;;;;23.80;62.31;100124.73;126172;1099;104153;-79
2021/06/20 16:09:18;;;;;;;19.53;4.43;;;;;;;23.77;62.36;100123.00;126300;1099;104137;-78
2021/06/20 16:11:46;;;;;;;25.33;5.37;;;;;;;23.74;62.39;100128.44;126342;1099;104153;-77
2021/06/20 16:14:15;;;;;;;23.57;5.40;;;;;;;23.72;62.57;100124.93;126355;1099;104580;-78
2021/06/20 16:16:43;;;;;;;23.27;4.70;;;;;;;23.68;62.68;100121.45;126204;1099;104149;-78
2021/06/20 16:19:11;;;;;;;21.97;4.67;;;;;;;23.63;62.60;100128.70;126341;1097;104255;-78
2021/06/20 16:21:39;;;;;;;31.33;5.80;;;;;;;23.60;62.87;100126.09;126328;1099;104137;-77